Nikko Maru — JD3180 — position and weather

sailwx.info

Track history (hours):
 
Tides and Currents Weather Stations Pressure Air Temp Water Temp Dewpoint Dewpoint Depression Visibility Wind Speed Wind Dir Waves Ship Positions

Nikko Maru

Last reported at 2018-Jun-20 22:30 UTC. Time now 2018-Jun-20 22:41 UTC.
Position N 34°33' E 135°27'.

Length 43 m; draft 4 m.

Type: Tug. MMSI: 431002379.

Date/timePositionNaut miles runAvg speedWind from/ knotsBaromVisibWave heightAir tempDewpointWater temp
2018-Jun-20 22:30N 34°33' E 135°27'0 0.0
2018-Jun-20 21:59N 34°33' E 135°27'0 0.0
2018-Jun-20 21:30N 34°33' E 135°27'0 0.0
2018-Jun-20 21:00N 34°33' E 135°27'0 0.0
2018-Jun-20 20:30N 34°33' E 135°27'0 0.0
2018-Jun-20 20:00N 34°33' E 135°27'0 0.0
2018-Jun-20 19:30N 34°33' E 135°27'0 0.0
2018-Jun-20 19:00N 34°33' E 135°27'0 0.0
2018-Jun-20 18:29N 34°33' E 135°27'511.0
2018-Jun-20 18:00N 34°34' E 135°20'714.4
2018-Jun-20 17:30N 34°34' E 135°11'713.9
2018-Jun-20 17:00N 34°36' E 135°03'5 9.0
2018-Jun-20 16:30N 34°37' E 134°58'612.3
2018-Jun-20 16:00N 34°36' E 135°05'2 4.9
2018-Jun-20 15:30N 34°35' E 135°08'1 1.4
2018-Jun-20 15:00N 34°35' E 135°09'613.0
2018-Jun-20 14:30N 34°35' E 135°17'713.3
2018-Jun-20 14:00N 34°33' E 135°25'2 3.3
2018-Jun-20 13:30N 34°33' E 135°27'0 0.0
2018-Jun-20 13:00N 34°33' E 135°27'0 0.0
2018-Jun-20 12:30N 34°33' E 135°27'0 0.0
2018-Jun-20 12:00N 34°33' E 135°27'0 0.0
2018-Jun-20 11:30N 34°33' E 135°27'0 0.0
2018-Jun-20 11:00N 34°33' E 135°27'0 0.0
2018-Jun-20 10:30N 34°33' E 135°27'0 0.0
2018-Jun-20 09:58N 34°33' E 135°27'0 0.0
2018-Jun-20 09:30N 34°33' E 135°27'0 0.0
2018-Jun-20 09:00N 34°33' E 135°27'0 0.0
2018-Jun-20 08:30N 34°33' E 135°27'0 0.0
2018-Jun-20 08:00N 34°33' E 135°27'0 0.0
2018-Jun-20 07:29N 34°33' E 135°27'0 0.0
2018-Jun-20 07:00N 34°33' E 135°27'0 0.0
2018-Jun-20 06:30N 34°33' E 135°27'0 0.0
2018-Jun-20 06:00N 34°33' E 135°27'0 0.0
2018-Jun-20 05:30N 34°33' E 135°27'0 0.0
2018-Jun-20 05:00N 34°33' E 135°27'0 0.0
2018-Jun-20 04:30N 34°33' E 135°27'0 0.0
2018-Jun-20 04:00N 34°33' E 135°27'0 0.0
2018-Jun-20 03:30N 34°33' E 135°27'0 0.0
2018-Jun-20 03:00N 34°33' E 135°27'0 0.0
2018-Jun-20 02:30N 34°33' E 135°27'0 0.0
2018-Jun-20 02:00N 34°33' E 135°27'0 0.0
2018-Jun-20 01:30N 34°33' E 135°27'0 0.0
2018-Jun-20 00:59N 34°33' E 135°27'1 2.5
2018-Jun-20 00:30N 34°33' E 135°25'1 0.9
2018-Jun-19 23:48N 34°33' E 135°26'0 0.5
2018-Jun-19 23:23N 34°33' E 135°26'2 5.5
2018-Jun-19 23:00N 34°32' E 135°24'0 0.4
2018-Jun-19 22:30N 34°32' E 135°24'1 2.4
2018-Jun-19 21:58N 34°33' E 135°23'1 1.6
2018-Jun-19 21:30N 34°33' E 135°24'2 3.9
2018-Jun-19 21:00N 34°33' E 135°27'0 0.0
2018-Jun-19 20:26N 34°33' E 135°27'0 0.0
2018-Jun-19 19:59N 34°33' E 135°27'0 0.0
2018-Jun-19 19:25N 34°33' E 135°27'0 0.0
2018-Jun-19 19:00N 34°33' E 135°27'0 0.0
2018-Jun-19 18:30N 34°33' E 135°27'0 0.0
2018-Jun-19 17:59N 34°33' E 135°27'0 0.0
2018-Jun-19 17:30N 34°33' E 135°27'0 0.0
2018-Jun-19 17:00N 34°33' E 135°27'0 0.0
2018-Jun-19 16:30N 34°33' E 135°27'0 0.0
2018-Jun-19 16:00N 34°33' E 135°27'0 0.0
2018-Jun-19 15:30N 34°33' E 135°27'0 0.0
2018-Jun-19 15:00N 34°33' E 135°27'0 0.0
2018-Jun-19 14:30N 34°33' E 135°27'0 0.0
2018-Jun-19 14:00N 34°33' E 135°27'0 0.0
2018-Jun-19 13:30N 34°33' E 135°27'0 0.0
2018-Jun-19 13:00N 34°33' E 135°27'0 0.0
2018-Jun-19 12:30N 34°33' E 135°27'0 0.0
2018-Jun-19 12:00N 34°33' E 135°27'0 0.0
2018-Jun-19 11:30N 34°33' E 135°27'0 0.0
2018-Jun-19 11:00N 34°33' E 135°27'0 0.0
2018-Jun-19 10:30N 34°33' E 135°27'0 0.0
2018-Jun-19 10:00N 34°33' E 135°27'0 0.0
2018-Jun-19 09:30N 34°33' E 135°27'0 0.0
2018-Jun-19 09:00N 34°33' E 135°27'0 0.0
2018-Jun-19 08:30N 34°33' E 135°27'0 0.0
2018-Jun-19 08:00N 34°33' E 135°27'0 0.0
2018-Jun-19 07:30N 34°33' E 135°27'0 0.0
2018-Jun-19 07:00N 34°33' E 135°27'0 0.0
2018-Jun-19 06:30N 34°33' E 135°27'0 0.0
2018-Jun-19 06:00N 34°33' E 135°27'0 0.0
2018-Jun-19 05:27N 34°33' E 135°27'0 0.0
2018-Jun-19 05:00N 34°33' E 135°27'1 1.9
2018-Jun-19 04:30N 34°33' E 135°25'0 0.5
2018-Jun-19 03:59N 34°33' E 135°25'1 1.0
2018-Jun-19 03:21N 34°33' E 135°25'1 3.9
2018-Jun-19 03:00N 34°33' E 135°26'0 0.3
2018-Jun-19 02:23N 34°33' E 135°27'0 0.0
2018-Jun-19 02:00N 34°33' E 135°27'0 0.0
2018-Jun-19 01:28N 34°33' E 135°27'0 0.0
2018-Jun-18 23:48N 34°33' E 135°27'0 0.0
2018-Jun-18 23:17N 34°33' E 135°27'0 0.0
2018-Jun-18 23:00N 34°33' E 135°27'0 0.0
2018-Jun-18 22:30N 34°33' E 135°27'0 0.0
2018-Jun-18 22:00N 34°33' E 135°27'0 0.0
2018-Jun-18 21:30N 34°33' E 135°27'0 0.0
2018-Jun-18 21:00N 34°33' E 135°27'0 0.0
2018-Jun-18 20:30N 34°33' E 135°27'0 0.0
2018-Jun-18 20:00N 34°33' E 135°27'0 0.0
2018-Jun-18 19:30N 34°33' E 135°27'0 0.0
2018-Jun-18 18:58N 34°33' E 135°27'0 0.0
2018-Jun-18 18:30N 34°33' E 135°27'0 0.0
2018-Jun-18 18:00N 34°33' E 135°27'0 0.0
2018-Jun-18 17:30N 34°33' E 135°27'0 0.0
2018-Jun-18 17:00N 34°33' E 135°27'0 0.0
2018-Jun-18 16:30N 34°33' E 135°27'0 0.0
2018-Jun-18 16:00N 34°33' E 135°27'0 0.0
2018-Jun-18 15:29N 34°33' E 135°27'0 0.0
2018-Jun-18 15:00N 34°33' E 135°27'0 0.0
2018-Jun-18 14:30N 34°33' E 135°27'0 0.0
2018-Jun-18 14:00N 34°33' E 135°27'0 0.0
2018-Jun-18 13:30N 34°33' E 135°27'0 0.0
2018-Jun-18 12:59N 34°33' E 135°27'0 0.0
2018-Jun-18 12:29N 34°33' E 135°27'0 0.0
2018-Jun-18 12:00N 34°33' E 135°27'0 0.0
2018-Jun-18 11:28N 34°33' E 135°27'0 0.0
2018-Jun-18 11:00N 34°33' E 135°27'0 0.0
2018-Jun-18 10:30N 34°33' E 135°27'0 0.0
2018-Jun-18 10:00N 34°33' E 135°27'0 0.0
2018-Jun-18 09:30N 34°33' E 135°27'0 0.0
2018-Jun-18 09:00N 34°33' E 135°27'0 0.0
2018-Jun-18 08:29N 34°33' E 135°27'0 0.0
2018-Jun-18 08:00N 34°33' E 135°27'0 0.9
2018-Jun-18 07:30N 34°33' E 135°26'0 0.0
2018-Jun-18 07:00N 34°33' E 135°26'0 0.0
2018-Jun-18 06:30N 34°33' E 135°26'0 0.3
2018-Jun-18 06:00N 34°33' E 135°26'1 2.5
2018-Jun-18 05:30N 34°33' E 135°24'3 6.9
2018-Jun-18 05:00N 34°33' E 135°20'1 3.0
2018-Jun-18 04:30N 34°34' E 135°18'3 5.2
2018-Jun-18 04:00N 34°34' E 135°22'4 8.4
2018-Jun-18 03:31N 34°33' E 135°27'0 0.0
2018-Jun-18 03:00N 34°33' E 135°27'0 0.0
2018-Jun-18 02:30N 34°33' E 135°27'0 0.0
2018-Jun-18 02:00N 34°33' E 135°27'0 0.0
2018-Jun-18 01:30N 34°33' E 135°27'0 0.0
2018-Jun-18 01:00N 34°33' E 135°27'0 0.0
2018-Jun-18 00:30N 34°33' E 135°27'1 1.4
2018-Jun-17 23:59N 34°33' E 135°26'1 1.5
2018-Jun-17 23:28N 34°33' E 135°27'0 0.0
2018-Jun-17 23:00N 34°33' E 135°27'0 0.0
2018-Jun-17 22:30N 34°33' E 135°27'0 0.0
2018-Jun-17 22:00N 34°33' E 135°27'0 0.0
2018-Jun-17 21:30N 34°33' E 135°27'0 0.0
2018-Jun-17 21:00N 34°33' E 135°27'0 0.0
2018-Jun-17 20:30N 34°33' E 135°27'0 0.0
2018-Jun-17 20:01N 34°33' E 135°27'0 0.0
2018-Jun-17 19:29N 34°33' E 135°27'0 0.0
2018-Jun-17 18:58N 34°33' E 135°27'0 0.0
2018-Jun-17 18:30N 34°33' E 135°27'0 0.0
2018-Jun-17 18:00N 34°33' E 135°27'0 0.0
2018-Jun-17 17:30N 34°33' E 135°27'0 0.0
2018-Jun-17 16:59N 34°33' E 135°27'0 0.0
2018-Jun-17 16:30N 34°33' E 135°27'0 0.0
2018-Jun-17 16:00N 34°33' E 135°27'0 0.0
2018-Jun-17 15:30N 34°33' E 135°27'0 0.0
2018-Jun-17 15:00N 34°33' E 135°27'0 0.0
2018-Jun-17 14:30N 34°33' E 135°27'0 0.0
2018-Jun-17 14:01N 34°33' E 135°27'0 0.0
2018-Jun-17 13:30N 34°33' E 135°27'0 0.0
2018-Jun-17 13:00N 34°33' E 135°27'0 0.0
2018-Jun-17 12:31N 34°33' E 135°27'0 0.0
2018-Jun-17 12:00N 34°33' E 135°27'0 0.0
2018-Jun-17 11:30N 34°33' E 135°27'0 0.0
2018-Jun-17 11:00N 34°33' E 135°27'0 0.0
2018-Jun-17 10:30N 34°33' E 135°27'0 0.0
2018-Jun-17 09:59N 34°33' E 135°27'0 0.0
2018-Jun-17 09:30N 34°33' E 135°27'0 0.0
2018-Jun-17 09:00N 34°33' E 135°27'0 0.0
2018-Jun-17 08:29N 34°33' E 135°27'0 0.0
2018-Jun-17 07:59N 34°33' E 135°27'0 0.0
2018-Jun-17 07:29N 34°33' E 135°27'0 0.0
2018-Jun-17 07:00N 34°33' E 135°27'0 0.0
2018-Jun-17 06:29N 34°33' E 135°27'0 0.0
2018-Jun-17 06:00N 34°33' E 135°27'0 0.0
2018-Jun-17 05:30N 34°33' E 135°27'0 0.0
2018-Jun-17 05:00N 34°33' E 135°27'0 0.0
2018-Jun-17 04:30N 34°33' E 135°27'0 0.0
2018-Jun-17 04:00N 34°33' E 135°27'0 0.0
2018-Jun-17 03:30N 34°33' E 135°27'0 0.0
2018-Jun-17 03:00N 34°33' E 135°27'0 0.0
2018-Jun-17 02:30N 34°33' E 135°27'0 0.0
2018-Jun-17 01:59N 34°33' E 135°27'0 0.0
2018-Jun-17 01:30N 34°33' E 135°27'0 0.0
2018-Jun-17 01:00N 34°33' E 135°27'0 0.0
2018-Jun-17 00:29N 34°33' E 135°27'0 0.0
2018-Jun-17 00:01N 34°33' E 135°27'0 0.0
2018-Jun-16 23:30N 34°33' E 135°27'0 0.0
2018-Jun-16 23:00N 34°33' E 135°27'0 0.0
2018-Jun-16 22:30N 34°33' E 135°27'0 0.0
2018-Jun-16 22:01N 34°33' E 135°27'0 0.0
2018-Jun-16 21:29N 34°33' E 135°27'0 0.0
2018-Jun-16 21:00N 34°33' E 135°27'0 0.0
2018-Jun-16 20:30N 34°33' E 135°27'0 0.0
2018-Jun-16 20:00N 34°33' E 135°27'0 0.0
2018-Jun-16 19:30N 34°33' E 135°27'0 0.0
2018-Jun-16 19:00N 34°33' E 135°27'0 0.0
2018-Jun-16 18:28N 34°33' E 135°27'0 0.0
2018-Jun-16 18:00N 34°33' E 135°27'0 0.0
2018-Jun-16 17:30N 34°33' E 135°27'0 0.0
2018-Jun-16 17:01N 34°33' E 135°27'0 0.0
2018-Jun-16 16:30N 34°33' E 135°27'0 0.0
2018-Jun-16 16:00N 34°33' E 135°27'0 0.0
2018-Jun-16 15:30N 34°33' E 135°27'0 0.0
2018-Jun-16 15:00N 34°33' E 135°27'0 0.0
2018-Jun-16 14:30N 34°33' E 135°27'0 0.0
2018-Jun-16 14:00N 34°33' E 135°27'0 0.0
2018-Jun-16 13:30N 34°33' E 135°27'0 0.0
2018-Jun-16 13:00N 34°33' E 135°27'0 0.0
2018-Jun-16 12:30N 34°33' E 135°27'0 0.0
2018-Jun-16 11:59N 34°33' E 135°27'0 0.0
2018-Jun-16 11:30N 34°33' E 135°27'0 0.0
2018-Jun-16 11:00N 34°33' E 135°27'0 0.0
2018-Jun-16 10:29N 34°33' E 135°27'0 0.0
2018-Jun-16 10:00N 34°33' E 135°27'0 0.0
2018-Jun-16 09:15N 34°33' E 135°27'0 0.0
2018-Jun-16 08:59N 34°33' E 135°27'0 0.0
2018-Jun-16 08:28N 34°33' E 135°27'0 0.0
2018-Jun-16 08:00N 34°33' E 135°27'0 0.0
2018-Jun-16 07:30N 34°33' E 135°27'0 0.0
2018-Jun-16 06:57N 34°33' E 135°27'0 0.0
2018-Jun-16 06:24N 34°33' E 135°27'0 0.0
2018-Jun-16 06:00N 34°33' E 135°27'0 0.0
2018-Jun-16 05:29N 34°33' E 135°27'0 0.0
2018-Jun-16 04:58N 34°33' E 135°27'0 0.0
2018-Jun-16 04:30N 34°33' E 135°27'0 0.0
2018-Jun-16 03:58N 34°33' E 135°27'0 0.0
2018-Jun-16 03:29N 34°33' E 135°27'0 0.0
2018-Jun-16 03:00N 34°33' E 135°27'0 0.0
2018-Jun-16 02:29N 34°33' E 135°27'0 0.0
2018-Jun-16 01:59N 34°33' E 135°27'0 0.0
2018-Jun-16 01:30N 34°33' E 135°27'0 0.0
2018-Jun-16 00:58N 34°33' E 135°27'0 0.0
2018-Jun-16 00:30N 34°33' E 135°27'0 0.0
2018-Jun-16 00:00N 34°33' E 135°27'0 0.0
2018-Jun-15 23:30N 34°33' E 135°27'0 0.0
2018-Jun-15 22:59N 34°33' E 135°27'0 0.0
2018-Jun-15 22:30N 34°33' E 135°27'0 0.0
2018-Jun-15 22:00N 34°33' E 135°27'0 0.0
2018-Jun-15 21:30N 34°33' E 135°27'0 0.0
2018-Jun-15 21:00N 34°33' E 135°27'0 0.0
2018-Jun-15 20:30N 34°33' E 135°27'0 0.0
2018-Jun-15 19:57N 34°33' E 135°27'0 0.0
2018-Jun-15 19:31N 34°33' E 135°27'0 0.0
2018-Jun-15 19:00N 34°33' E 135°27'0 0.0
2018-Jun-15 18:30N 34°33' E 135°27'0 0.0
2018-Jun-15 18:01N 34°33' E 135°27'0 0.0
2018-Jun-15 17:30N 34°33' E 135°27'0 0.0
2018-Jun-15 17:00N 34°33' E 135°27'0 0.0
2018-Jun-15 16:30N 34°33' E 135°27'0 0.0
2018-Jun-15 16:00N 34°33' E 135°27'0 0.0
2018-Jun-15 15:30N 34°33' E 135°27'0 0.0
2018-Jun-15 14:59N 34°33' E 135°27'0 0.0
2018-Jun-15 14:30N 34°33' E 135°27'0 0.0
2018-Jun-15 14:01N 34°33' E 135°27'0 0.0
2018-Jun-15 13:29N 34°33' E 135°27'0 0.0
2018-Jun-15 13:00N 34°33' E 135°27'0 0.0
2018-Jun-15 12:30N 34°33' E 135°27'0 0.0
2018-Jun-15 11:59N 34°33' E 135°27'0 0.0
2018-Jun-15 11:30N 34°33' E 135°27'0 0.0
2018-Jun-15 10:55N 34°33' E 135°27'0 0.0
2018-Jun-15 10:29N 34°33' E 135°27'0 0.0
2018-Jun-15 09:58N 34°33' E 135°27'0 0.0
2018-Jun-15 09:31N 34°33' E 135°27'0 0.0
2018-Jun-15 09:01N 34°33' E 135°27'0 0.0
2018-Jun-15 08:29N 34°33' E 135°27'0 0.0
2018-Jun-15 08:00N 34°33' E 135°27'0 0.0
2018-Jun-15 07:30N 34°33' E 135°27'0 0.0
2018-Jun-15 06:59N 34°33' E 135°27'0 0.0
2018-Jun-15 06:31N 34°33' E 135°27'0 0.0
2018-Jun-15 06:00N 34°33' E 135°27'0 0.0
2018-Jun-15 05:30N 34°33' E 135°27'0 0.0
2018-Jun-15 04:02N 34°33' E 135°27'0 0.0
2018-Jun-15 03:49N 34°33' E 135°27'0 0.0
2018-Jun-15 03:30N 34°33' E 135°27'0 0.0
2018-Jun-15 03:00N 34°33' E 135°27'0 0.1
2018-Jun-15 02:31N 34°33' E 135°27'0 0.1
2018-Jun-15 02:00N 34°33' E 135°27'0 0.0
2018-Jun-15 01:30N 34°33' E 135°27'0 0.0
2018-Jun-15 00:59N 34°33' E 135°27'0 0.0
2018-Jun-15 00:30N 34°33' E 135°27'0 0.0
2018-Jun-15 00:00N 34°33' E 135°27'0 0.0
2018-Jun-14 23:27N 34°33' E 135°27'0 0.0
2018-Jun-14 23:00N 34°33' E 135°27'0 0.0
2018-Jun-14 22:30N 34°33' E 135°27'0 0.0
2018-Jun-14 21:59N 34°33' E 135°27'0 0.0
2018-Jun-14 21:30N 34°33' E 135°27'0 0.0
2018-Jun-14 21:00N 34°33' E 135°27'0 0.0
2018-Jun-14 20:30N 34°33' E 135°27'0 0.0
2018-Jun-14 20:00N 34°33' E 135°27'0 0.0
2018-Jun-14 19:30N 34°33' E 135°27'0 0.0
2018-Jun-14 19:00N 34°33' E 135°27'0 0.0
2018-Jun-14 18:30N 34°33' E 135°27'0 0.0
2018-Jun-14 18:00N 34°33' E 135°27'0 0.0
2018-Jun-14 17:30N 34°33' E 135°27'0 0.0
2018-Jun-14 16:59N 34°33' E 135°27'0 0.0
2018-Jun-14 16:29N 34°33' E 135°27'0 0.0
2018-Jun-14 16:00N 34°33' E 135°27'0 0.0
2018-Jun-14 15:31N 34°33' E 135°27'0 0.0
2018-Jun-14 14:59N 34°33' E 135°27'0 0.0
2018-Jun-14 14:31N 34°33' E 135°27'0 0.0
2018-Jun-14 14:00N 34°33' E 135°27'0 0.0
2018-Jun-14 13:30N 34°33' E 135°27'0 0.0
2018-Jun-14 13:00N 34°33' E 135°27'0 0.0
2018-Jun-14 12:30N 34°33' E 135°27'0 0.0
2018-Jun-14 12:00N 34°33' E 135°27'0 0.0
2018-Jun-14 11:31N 34°33' E 135°27'0 0.0
2018-Jun-14 11:00N 34°33' E 135°27'0 0.0
2018-Jun-14 10:28N 34°33' E 135°27'0 0.0
2018-Jun-14 10:01N 34°33' E 135°27'0 0.0
2018-Jun-14 09:30N 34°33' E 135°27'0 0.0
2018-Jun-14 09:00N 34°33' E 135°27'0 0.0
2018-Jun-14 08:30N 34°33' E 135°27'0 0.0
2018-Jun-14 08:00N 34°33' E 135°27'0 0.0
2018-Jun-14 07:30N 34°33' E 135°27'0 0.0
2018-Jun-14 07:00N 34°33' E 135°27'0 0.0
2018-Jun-14 06:30N 34°33' E 135°27'0 0.0
2018-Jun-14 05:58N 34°33' E 135°27'0 0.0
2018-Jun-14 05:29N 34°33' E 135°27'0 0.0
2018-Jun-14 05:00N 34°33' E 135°27'0 0.0
2018-Jun-14 04:30N 34°33' E 135°27'0 0.0
2018-Jun-14 04:00N 34°33' E 135°27'0 0.0
2018-Jun-14 03:30N 34°33' E 135°27'0 0.0
2018-Jun-14 03:00N 34°33' E 135°27'0 0.0
2018-Jun-14 02:30N 34°33' E 135°27'0 0.0
2018-Jun-14 02:00N 34°33' E 135°27'0 0.0
2018-Jun-14 01:30N 34°33' E 135°27'0 0.0
2018-Jun-14 01:00N 34°33' E 135°27'0 0.0
2018-Jun-14 00:28N 34°33' E 135°27'0 0.0
2018-Jun-14 00:00N 34°33' E 135°27'0 0.0
2018-Jun-13 23:30N 34°33' E 135°27'0 0.0
2018-Jun-13 22:59N 34°33' E 135°27'0 0.0
2018-Jun-13 22:30N 34°33' E 135°27'0 0.0
2018-Jun-13 22:00N 34°33' E 135°27'0 0.0
2018-Jun-13 21:30N 34°33' E 135°27'0 0.0
2018-Jun-13 21:00N 34°33' E 135°27'0 0.0
2018-Jun-13 20:30N 34°33' E 135°27'0 0.0
2018-Jun-13 20:00N 34°33' E 135°27'0 0.0
2018-Jun-13 19:30N 34°33' E 135°27'0 0.0
2018-Jun-13 19:00N 34°33' E 135°27'0 0.0
2018-Jun-13 18:30N 34°33' E 135°27'0 0.0
2018-Jun-13 18:00N 34°33' E 135°27'0 0.0
2018-Jun-13 17:30N 34°33' E 135°27'0 0.0
2018-Jun-13 17:00N 34°33' E 135°27'0 0.0
2018-Jun-13 16:30N 34°33' E 135°27'0 0.0
2018-Jun-13 16:00N 34°33' E 135°27'0 0.0
2018-Jun-13 15:30N 34°33' E 135°27'0 0.0
2018-Jun-13 15:00N 34°33' E 135°27'0 0.0
2018-Jun-13 14:30N 34°33' E 135°27'0 0.0
2018-Jun-13 14:00N 34°33' E 135°27'0 0.0
2018-Jun-13 13:30N 34°33' E 135°27'0 0.0
2018-Jun-13 13:00N 34°33' E 135°27'0 0.0
2018-Jun-13 12:30N 34°33' E 135°27'0 0.0
2018-Jun-13 12:00N 34°33' E 135°27'0 0.0
2018-Jun-13 11:27N 34°33' E 135°27'0 0.0
2018-Jun-13 11:00N 34°33' E 135°27'0 0.0
2018-Jun-13 10:30N 34°33' E 135°27'0 0.0
2018-Jun-13 09:59N 34°33' E 135°27'0 0.0
2018-Jun-13 09:11N 34°33' E 135°27'0 0.0
2018-Jun-13 06:46N 34°33' E 135°27'0 0.0
2018-Jun-13 06:31N 34°33' E 135°27'0 0.0
2018-Jun-13 05:59N 34°33' E 135°27'0 0.0
2018-Jun-13 05:29N 34°33' E 135°27'0 0.0
2018-Jun-13 05:00N 34°33' E 135°27'1 1.1
2018-Jun-13 04:28N 34°33' E 135°26'510.8
2018-Jun-13 04:01N 34°38' E 135°23'1 1.0
2018-Jun-13 03:28N 34°38' E 135°24'1 1.1
2018-Jun-13 03:00N 34°38' E 135°23'2 4.9
2018-Jun-13 02:30N 34°39' E 135°26'0 0.0
2018-Jun-13 02:00N 34°39' E 135°26'0 0.0
2018-Jun-13 01:30N 34°39' E 135°26'0 0.0
2018-Jun-13 01:00N 34°39' E 135°26'0 0.0
2018-Jun-13 00:30N 34°39' E 135°26'0 0.0
2018-Jun-13 00:00N 34°39' E 135°26'0 0.0
2018-Jun-12 23:30N 34°39' E 135°26'2 3.4
2018-Jun-12 22:59N 34°39' E 135°24'1 1.2
2018-Jun-12 22:29N 34°38' E 135°23'1 1.4
2018-Jun-12 22:00N 34°38' E 135°23'5 9.5
2018-Jun-12 21:30N 34°33' E 135°25'1 2.3
2018-Jun-12 21:00N 34°33' E 135°27'0 0.0
2018-Jun-12 20:30N 34°33' E 135°27'0 0.0
2018-Jun-12 19:59N 34°33' E 135°27'0 0.0
2018-Jun-12 19:28N 34°33' E 135°27'0 0.0
2018-Jun-12 19:00N 34°33' E 135°27'0 0.0
2018-Jun-12 18:30N 34°33' E 135°27'0 0.0
2018-Jun-12 18:00N 34°33' E 135°27'0 0.0
2018-Jun-12 17:14N 34°33' E 135°27'0 0.0
2018-Jun-12 16:56N 34°33' E 135°27'0 0.0
2018-Jun-12 16:30N 34°33' E 135°27'0 0.0
2018-Jun-12 16:00N 34°33' E 135°27'0 0.0
2018-Jun-12 15:27N 34°33' E 135°27'0 0.0
2018-Jun-12 14:55N 34°33' E 135°27'0 0.0
2018-Jun-12 14:28N 34°33' E 135°27'0 0.0
2018-Jun-12 13:58N 34°33' E 135°27'0 0.0
2018-Jun-12 13:29N 34°33' E 135°27'0 0.0
2018-Jun-12 12:59N 34°33' E 135°27'0 0.0
2018-Jun-12 12:30N 34°33' E 135°27'0 0.0
2018-Jun-12 11:58N 34°33' E 135°27'0 0.0
2018-Jun-12 11:30N 34°33' E 135°27'0 0.0
2018-Jun-12 11:00N 34°33' E 135°27'0 0.0
2018-Jun-12 10:28N 34°33' E 135°27'0 0.0
2018-Jun-12 09:50N 34°33' E 135°27'0 0.0
2018-Jun-12 09:21N 34°33' E 135°27'0 0.0
2018-Jun-12 08:46N 34°33' E 135°27'0 0.0
2018-Jun-12 08:06N 34°33' E 135°27'0 0.1
2018-Jun-12 08:00N 34°33' E 135°27'0 0.0
2018-Jun-12 07:29N 34°33' E 135°27'0 0.0
2018-Jun-12 07:00N 34°33' E 135°27'0 0.0
2018-Jun-12 05:03N 34°33' E 135°27'0 0.0
2018-Jun-12 05:00N 34°33' E 135°27'0 0.0
2018-Jun-12 04:03N 34°33' E 135°27'0 0.0
2018-Jun-12 03:58N 34°33' E 135°27'0 0.0
2018-Jun-12 01:39N 34°33' E 135°27'0 0.0
2018-Jun-12 01:21N 34°33' E 135°27'0 0.0
2018-Jun-12 01:00N 34°33' E 135°27'0 0.0
2018-Jun-12 00:11N 34°33' E 135°27'0 0.0
2018-Jun-11 23:42N 34°33' E 135°27'0 0.0
2018-Jun-11 23:27N 34°33' E 135°27'0 0.0
2018-Jun-11 22:59N 34°33' E 135°27'0 0.0
2018-Jun-11 22:30N 34°33' E 135°27'0 0.0
2018-Jun-11 22:00N 34°33' E 135°27'0 0.0
2018-Jun-11 21:29N 34°33' E 135°27'0 0.0
2018-Jun-11 21:00N 34°33' E 135°27'0 0.0
2018-Jun-11 20:28N 34°33' E 135°27'0 0.0
2018-Jun-11 20:00N 34°33' E 135°27'0 0.0
2018-Jun-11 19:30N 34°33' E 135°27'0 0.0
2018-Jun-11 18:59N 34°33' E 135°27'0 0.0
2018-Jun-11 18:26N 34°33' E 135°27'0 0.0
2018-Jun-11 17:59N 34°33' E 135°27'0 0.0
2018-Jun-11 17:30N 34°33' E 135°27'0 0.0
2018-Jun-11 17:00N 34°33' E 135°27'0 0.0
2018-Jun-11 16:04N 34°33' E 135°27'0 0.0
2018-Jun-11 15:50N 34°33' E 135°27'0 0.0
2018-Jun-11 15:10N 34°33' E 135°27'0 0.0
2018-Jun-11 15:00N 34°33' E 135°27'0 0.0
2018-Jun-11 14:29N 34°33' E 135°27'0 0.0
2018-Jun-11 13:59N 34°33' E 135°27'0 0.0
2018-Jun-11 13:25N 34°33' E 135°27'0 0.0
2018-Jun-11 13:00N 34°33' E 135°27'0 0.0
2018-Jun-11 12:23N 34°33' E 135°27'0 0.0
2018-Jun-11 12:00N 34°33' E 135°27'0 0.0
2018-Jun-11 11:24N 34°33' E 135°27'0 0.0
2018-Jun-11 10:35N 34°33' E 135°27'0 0.0
2018-Jun-11 10:23N 34°33' E 135°27'0 0.0
2018-Jun-11 09:59N 34°33' E 135°27'0 0.0
2018-Jun-11 08:57N 34°33' E 135°27'0 0.0
2018-Jun-11 07:02N 34°33' E 135°27'0 0.0
2018-Jun-11 07:00N 34°33' E 135°27'0 0.0
2018-Jun-11 06:29N 34°33' E 135°27'0 0.2
2018-Jun-11 05:52N 34°33' E 135°27'3 8.4
2018-Jun-11 05:28N 34°31' E 135°23'0 0.4
2018-Jun-11 04:56N 34°31' E 135°23'0 0.2
2018-Jun-11 03:05N 34°31' E 135°24'0 0.0
2018-Jun-11 02:58N 34°31' E 135°24'0 0.1
2018-Jun-11 02:30N 34°31' E 135°24'612.5
2018-Jun-11 02:00N 34°37' E 135°23'3 4.9
2018-Jun-11 01:30N 34°39' E 135°24'0 0.1
2018-Jun-11 01:00N 34°39' E 135°24'1 1.5
2018-Jun-11 00:30N 34°40' E 135°24'0 0.0
2018-Jun-11 00:00N 34°40' E 135°24'0 0.0
2018-Jun-10 23:30N 34°40' E 135°24'0 0.0
2018-Jun-10 23:00N 34°40' E 135°24'  
Track history (hours):
 
Tides and Currents Weather Stations Pressure Air Temp Water Temp Dewpoint Dewpoint Depression Visibility Wind Speed Wind Dir Waves Ship Positions

Nikko Maru

Last reported at 2018-Jun-20 22:30 UTC. Time now 2018-Jun-20 22:41 UTC.
Position N 34°33' E 135°27'.

Length 43 m; draft 4 m.

Type: Tug. MMSI: 431002379.

Date/timePositionNaut miles runAvg speedWind from/ knotsBaromVisibWave heightAir tempDewpointWater temp
2018-Jun-20 22:30N 34°33' E 135°27'0 0.0
2018-Jun-20 21:59N 34°33' E 135°27'0 0.0
2018-Jun-20 21:30N 34°33' E 135°27'0 0.0
2018-Jun-20 21:00N 34°33' E 135°27'0 0.0
2018-Jun-20 20:30N 34°33' E 135°27'0 0.0
2018-Jun-20 20:00N 34°33' E 135°27'0 0.0
2018-Jun-20 19:30N 34°33' E 135°27'0 0.0
2018-Jun-20 19:00N 34°33' E 135°27'0 0.0
2018-Jun-20 18:29N 34°33' E 135°27'511.0
2018-Jun-20 18:00N 34°34' E 135°20'714.4
2018-Jun-20 17:30N 34°34' E 135°11'713.9
2018-Jun-20 17:00N 34°36' E 135°03'5 9.0
2018-Jun-20 16:30N 34°37' E 134°58'612.3
2018-Jun-20 16:00N 34°36' E 135°05'2 4.9
2018-Jun-20 15:30N 34°35' E 135°08'1 1.4
2018-Jun-20 15:00N 34°35' E 135°09'613.0
2018-Jun-20 14:30N 34°35' E 135°17'713.3
2018-Jun-20 14:00N 34°33' E 135°25'2 3.3
2018-Jun-20 13:30N 34°33' E 135°27'0 0.0
2018-Jun-20 13:00N 34°33' E 135°27'0 0.0
2018-Jun-20 12:30N 34°33' E 135°27'0 0.0
2018-Jun-20 12:00N 34°33' E 135°27'0 0.0
2018-Jun-20 11:30N 34°33' E 135°27'0 0.0
2018-Jun-20 11:00N 34°33' E 135°27'0 0.0
2018-Jun-20 10:30N 34°33' E 135°27'0 0.0
2018-Jun-20 09:58N 34°33' E 135°27'0 0.0
2018-Jun-20 09:30N 34°33' E 135°27'0 0.0
2018-Jun-20 09:00N 34°33' E 135°27'0 0.0
2018-Jun-20 08:30N 34°33' E 135°27'0 0.0
2018-Jun-20 08:00N 34°33' E 135°27'0 0.0
2018-Jun-20 07:29N 34°33' E 135°27'0 0.0
2018-Jun-20 07:00N 34°33' E 135°27'0 0.0
2018-Jun-20 06:30N 34°33' E 135°27'0 0.0
2018-Jun-20 06:00N 34°33' E 135°27'0 0.0
2018-Jun-20 05:30N 34°33' E 135°27'0 0.0
2018-Jun-20 05:00N 34°33' E 135°27'0 0.0
2018-Jun-20 04:30N 34°33' E 135°27'0 0.0
2018-Jun-20 04:00N 34°33' E 135°27'0 0.0
2018-Jun-20 03:30N 34°33' E 135°27'0 0.0
2018-Jun-20 03:00N 34°33' E 135°27'0 0.0
2018-Jun-20 02:30N 34°33' E 135°27'0 0.0
2018-Jun-20 02:00N 34°33' E 135°27'0 0.0
2018-Jun-20 01:30N 34°33' E 135°27'0 0.0
2018-Jun-20 00:59N 34°33' E 135°27'1 2.5
2018-Jun-20 00:30N 34°33' E 135°25'1 0.9
2018-Jun-19 23:48N 34°33' E 135°26'0 0.5
2018-Jun-19 23:23N 34°33' E 135°26'2 5.5
2018-Jun-19 23:00N 34°32' E 135°24'0 0.4
2018-Jun-19 22:30N 34°32' E 135°24'1 2.4
2018-Jun-19 21:58N 34°33' E 135°23'1 1.6
2018-Jun-19 21:30N 34°33' E 135°24'2 3.9
2018-Jun-19 21:00N 34°33' E 135°27'0 0.0
2018-Jun-19 20:26N 34°33' E 135°27'0 0.0
2018-Jun-19 19:59N 34°33' E 135°27'0 0.0
2018-Jun-19 19:25N 34°33' E 135°27'0 0.0
2018-Jun-19 19:00N 34°33' E 135°27'0 0.0
2018-Jun-19 18:30N 34°33' E 135°27'0 0.0
2018-Jun-19 17:59N 34°33' E 135°27'0 0.0
2018-Jun-19 17:30N 34°33' E 135°27'0 0.0
2018-Jun-19 17:00N 34°33' E 135°27'0 0.0
2018-Jun-19 16:30N 34°33' E 135°27'0 0.0
2018-Jun-19 16:00N 34°33' E 135°27'0 0.0
2018-Jun-19 15:30N 34°33' E 135°27'0 0.0
2018-Jun-19 15:00N 34°33' E 135°27'0 0.0
2018-Jun-19 14:30N 34°33' E 135°27'0 0.0
2018-Jun-19 14:00N 34°33' E 135°27'0 0.0
2018-Jun-19 13:30N 34°33' E 135°27'0 0.0
2018-Jun-19 13:00N 34°33' E 135°27'0 0.0
2018-Jun-19 12:30N 34°33' E 135°27'0 0.0
2018-Jun-19 12:00N 34°33' E 135°27'0 0.0
2018-Jun-19 11:30N 34°33' E 135°27'0 0.0
2018-Jun-19 11:00N 34°33' E 135°27'0 0.0
2018-Jun-19 10:30N 34°33' E 135°27'0 0.0
2018-Jun-19 10:00N 34°33' E 135°27'0 0.0
2018-Jun-19 09:30N 34°33' E 135°27'0 0.0
2018-Jun-19 09:00N 34°33' E 135°27'0 0.0
2018-Jun-19 08:30N 34°33' E 135°27'0 0.0
2018-Jun-19 08:00N 34°33' E 135°27'0 0.0
2018-Jun-19 07:30N 34°33' E 135°27'0 0.0
2018-Jun-19 07:00N 34°33' E 135°27'0 0.0
2018-Jun-19 06:30N 34°33' E 135°27'0 0.0
2018-Jun-19 06:00N 34°33' E 135°27'0 0.0
2018-Jun-19 05:27N 34°33' E 135°27'0 0.0
2018-Jun-19 05:00N 34°33' E 135°27'1 1.9
2018-Jun-19 04:30N 34°33' E 135°25'0 0.5
2018-Jun-19 03:59N 34°33' E 135°25'1 1.0
2018-Jun-19 03:21N 34°33' E 135°25'1 3.9
2018-Jun-19 03:00N 34°33' E 135°26'0 0.3
2018-Jun-19 02:23N 34°33' E 135°27'0 0.0
2018-Jun-19 02:00N 34°33' E 135°27'0 0.0
2018-Jun-19 01:28N 34°33' E 135°27'0 0.0
2018-Jun-18 23:48N 34°33' E 135°27'0 0.0
2018-Jun-18 23:17N 34°33' E 135°27'0 0.0
2018-Jun-18 23:00N 34°33' E 135°27'0 0.0
2018-Jun-18 22:30N 34°33' E 135°27'0 0.0
2018-Jun-18 22:00N 34°33' E 135°27'0 0.0
2018-Jun-18 21:30N 34°33' E 135°27'0 0.0
2018-Jun-18 21:00N 34°33' E 135°27'0 0.0
2018-Jun-18 20:30N 34°33' E 135°27'0 0.0
2018-Jun-18 20:00N 34°33' E 135°27'0 0.0
2018-Jun-18 19:30N 34°33' E 135°27'0 0.0
2018-Jun-18 18:58N 34°33' E 135°27'0 0.0
2018-Jun-18 18:30N 34°33' E 135°27'0 0.0
2018-Jun-18 18:00N 34°33' E 135°27'0 0.0
2018-Jun-18 17:30N 34°33' E 135°27'0 0.0
2018-Jun-18 17:00N 34°33' E 135°27'0 0.0
2018-Jun-18 16:30N 34°33' E 135°27'0 0.0
2018-Jun-18 16:00N 34°33' E 135°27'0 0.0
2018-Jun-18 15:29N 34°33' E 135°27'0 0.0
2018-Jun-18 15:00N 34°33' E 135°27'0 0.0
2018-Jun-18 14:30N 34°33' E 135°27'0 0.0
2018-Jun-18 14:00N 34°33' E 135°27'0 0.0
2018-Jun-18 13:30N 34°33' E 135°27'0 0.0
2018-Jun-18 12:59N 34°33' E 135°27'0 0.0
2018-Jun-18 12:29N 34°33' E 135°27'0 0.0
2018-Jun-18 12:00N 34°33' E 135°27'0 0.0
2018-Jun-18 11:28N 34°33' E 135°27'0 0.0
2018-Jun-18 11:00N 34°33' E 135°27'0 0.0
2018-Jun-18 10:30N 34°33' E 135°27'0 0.0
2018-Jun-18 10:00N 34°33' E 135°27'0 0.0
2018-Jun-18 09:30N 34°33' E 135°27'0 0.0
2018-Jun-18 09:00N 34°33' E 135°27'0 0.0
2018-Jun-18 08:29N 34°33' E 135°27'0 0.0
2018-Jun-18 08:00N 34°33' E 135°27'0 0.9
2018-Jun-18 07:30N 34°33' E 135°26'0 0.0
2018-Jun-18 07:00N 34°33' E 135°26'0 0.0
2018-Jun-18 06:30N 34°33' E 135°26'0 0.3
2018-Jun-18 06:00N 34°33' E 135°26'1 2.5
2018-Jun-18 05:30N 34°33' E 135°24'3 6.9
2018-Jun-18 05:00N 34°33' E 135°20'1 3.0
2018-Jun-18 04:30N 34°34' E 135°18'3 5.2
2018-Jun-18 04:00N 34°34' E 135°22'4 8.4
2018-Jun-18 03:31N 34°33' E 135°27'0 0.0
2018-Jun-18 03:00N 34°33' E 135°27'0 0.0
2018-Jun-18 02:30N 34°33' E 135°27'0 0.0
2018-Jun-18 02:00N 34°33' E 135°27'0 0.0
2018-Jun-18 01:30N 34°33' E 135°27'0 0.0
2018-Jun-18 01:00N 34°33' E 135°27'0 0.0
2018-Jun-18 00:30N 34°33' E 135°27'1 1.4
2018-Jun-17 23:59N 34°33' E 135°26'1 1.5
2018-Jun-17 23:28N 34°33' E 135°27'0 0.0
2018-Jun-17 23:00N 34°33' E 135°27'0 0.0
2018-Jun-17 22:30N 34°33' E 135°27'0 0.0
2018-Jun-17 22:00N 34°33' E 135°27'0 0.0
2018-Jun-17 21:30N 34°33' E 135°27'0 0.0
2018-Jun-17 21:00N 34°33' E 135°27'0 0.0
2018-Jun-17 20:30N 34°33' E 135°27'0 0.0
2018-Jun-17 20:01N 34°33' E 135°27'0 0.0
2018-Jun-17 19:29N 34°33' E 135°27'0 0.0
2018-Jun-17 18:58N 34°33' E 135°27'0 0.0
2018-Jun-17 18:30N 34°33' E 135°27'0 0.0
2018-Jun-17 18:00N 34°33' E 135°27'0 0.0
2018-Jun-17 17:30N 34°33' E 135°27'0 0.0
2018-Jun-17 16:59N 34°33' E 135°27'0 0.0
2018-Jun-17 16:30N 34°33' E 135°27'0 0.0
2018-Jun-17 16:00N 34°33' E 135°27'0 0.0
2018-Jun-17 15:30N 34°33' E 135°27'0 0.0
2018-Jun-17 15:00N 34°33' E 135°27'0 0.0
2018-Jun-17 14:30N 34°33' E 135°27'0 0.0
2018-Jun-17 14:01N 34°33' E 135°27'0 0.0
2018-Jun-17 13:30N 34°33' E 135°27'0 0.0
2018-Jun-17 13:00N 34°33' E 135°27'0 0.0
2018-Jun-17 12:31N 34°33' E 135°27'0 0.0
2018-Jun-17 12:00N 34°33' E 135°27'0 0.0
2018-Jun-17 11:30N 34°33' E 135°27'0 0.0
2018-Jun-17 11:00N 34°33' E 135°27'0 0.0
2018-Jun-17 10:30N 34°33' E 135°27'0 0.0
2018-Jun-17 09:59N 34°33' E 135°27'0 0.0
2018-Jun-17 09:30N 34°33' E 135°27'0 0.0
2018-Jun-17 09:00N 34°33' E 135°27'0 0.0
2018-Jun-17 08:29N 34°33' E 135°27'0 0.0
2018-Jun-17 07:59N 34°33' E 135°27'0 0.0
2018-Jun-17 07:29N 34°33' E 135°27'0 0.0
2018-Jun-17 07:00N 34°33' E 135°27'0 0.0
2018-Jun-17 06:29N 34°33' E 135°27'0 0.0
2018-Jun-17 06:00N 34°33' E 135°27'0 0.0
2018-Jun-17 05:30N 34°33' E 135°27'0 0.0
2018-Jun-17 05:00N 34°33' E 135°27'0 0.0
2018-Jun-17 04:30N 34°33' E 135°27'0 0.0
2018-Jun-17 04:00N 34°33' E 135°27'0 0.0
2018-Jun-17 03:30N 34°33' E 135°27'0 0.0
2018-Jun-17 03:00N 34°33' E 135°27'0 0.0
2018-Jun-17 02:30N 34°33' E 135°27'0 0.0
2018-Jun-17 01:59N 34°33' E 135°27'0 0.0
2018-Jun-17 01:30N 34°33' E 135°27'0 0.0
2018-Jun-17 01:00N 34°33' E 135°27'0 0.0
2018-Jun-17 00:29N 34°33' E 135°27'0 0.0
2018-Jun-17 00:01N 34°33' E 135°27'0 0.0
2018-Jun-16 23:30N 34°33' E 135°27'0 0.0
2018-Jun-16 23:00N 34°33' E 135°27'0 0.0
2018-Jun-16 22:30N 34°33' E 135°27'0 0.0
2018-Jun-16 22:01N 34°33' E 135°27'0 0.0
2018-Jun-16 21:29N 34°33' E 135°27'0 0.0
2018-Jun-16 21:00N 34°33' E 135°27'0 0.0
2018-Jun-16 20:30N 34°33' E 135°27'0 0.0
2018-Jun-16 20:00N 34°33' E 135°27'0 0.0
2018-Jun-16 19:30N 34°33' E 135°27'0 0.0
2018-Jun-16 19:00N 34°33' E 135°27'0 0.0
2018-Jun-16 18:28N 34°33' E 135°27'0 0.0
2018-Jun-16 18:00N 34°33' E 135°27'0 0.0
2018-Jun-16 17:30N 34°33' E 135°27'0 0.0
2018-Jun-16 17:01N 34°33' E 135°27'0 0.0
2018-Jun-16 16:30N 34°33' E 135°27'0 0.0
2018-Jun-16 16:00N 34°33' E 135°27'0 0.0
2018-Jun-16 15:30N 34°33' E 135°27'0 0.0
2018-Jun-16 15:00N 34°33' E 135°27'0 0.0
2018-Jun-16 14:30N 34°33' E 135°27'0 0.0
2018-Jun-16 14:00N 34°33' E 135°27'0 0.0
2018-Jun-16 13:30N 34°33' E 135°27'0 0.0
2018-Jun-16 13:00N 34°33' E 135°27'0 0.0
2018-Jun-16 12:30N 34°33' E 135°27'0 0.0
2018-Jun-16 11:59N 34°33' E 135°27'0 0.0
2018-Jun-16 11:30N 34°33' E 135°27'0 0.0
2018-Jun-16 11:00N 34°33' E 135°27'0 0.0
2018-Jun-16 10:29N 34°33' E 135°27'0 0.0
2018-Jun-16 10:00N 34°33' E 135°27'0 0.0
2018-Jun-16 09:15N 34°33' E 135°27'0 0.0
2018-Jun-16 08:59N 34°33' E 135°27'0 0.0
2018-Jun-16 08:28N 34°33' E 135°27'0 0.0
2018-Jun-16 08:00N 34°33' E 135°27'0 0.0
2018-Jun-16 07:30N 34°33' E 135°27'0 0.0
2018-Jun-16 06:57N 34°33' E 135°27'0 0.0
2018-Jun-16 06:24N 34°33' E 135°27'0 0.0
2018-Jun-16 06:00N 34°33' E 135°27'0 0.0
2018-Jun-16 05:29N 34°33' E 135°27'0 0.0
2018-Jun-16 04:58N 34°33' E 135°27'0 0.0
2018-Jun-16 04:30N 34°33' E 135°27'0 0.0
2018-Jun-16 03:58N 34°33' E 135°27'0 0.0
2018-Jun-16 03:29N 34°33' E 135°27'0 0.0
2018-Jun-16 03:00N 34°33' E 135°27'0 0.0
2018-Jun-16 02:29N 34°33' E 135°27'0 0.0
2018-Jun-16 01:59N 34°33' E 135°27'0 0.0
2018-Jun-16 01:30N 34°33' E 135°27'0 0.0
2018-Jun-16 00:58N 34°33' E 135°27'0 0.0
2018-Jun-16 00:30N 34°33' E 135°27'0 0.0
2018-Jun-16 00:00N 34°33' E 135°27'0 0.0
2018-Jun-15 23:30N 34°33' E 135°27'0 0.0
2018-Jun-15 22:59N 34°33' E 135°27'0 0.0
2018-Jun-15 22:30N 34°33' E 135°27'0 0.0
2018-Jun-15 22:00N 34°33' E 135°27'0 0.0
2018-Jun-15 21:30N 34°33' E 135°27'0 0.0
2018-Jun-15 21:00N 34°33' E 135°27'0 0.0
2018-Jun-15 20:30N 34°33' E 135°27'0 0.0
2018-Jun-15 19:57N 34°33' E 135°27'0 0.0
2018-Jun-15 19:31N 34°33' E 135°27'0 0.0
2018-Jun-15 19:00N 34°33' E 135°27'0 0.0
2018-Jun-15 18:30N 34°33' E 135°27'0 0.0
2018-Jun-15 18:01N 34°33' E 135°27'0 0.0
2018-Jun-15 17:30N 34°33' E 135°27'0 0.0
2018-Jun-15 17:00N 34°33' E 135°27'0 0.0
2018-Jun-15 16:30N 34°33' E 135°27'0 0.0
2018-Jun-15 16:00N 34°33' E 135°27'0 0.0
2018-Jun-15 15:30N 34°33' E 135°27'0 0.0
2018-Jun-15 14:59N 34°33' E 135°27'0 0.0
2018-Jun-15 14:30N 34°33' E 135°27'0 0.0
2018-Jun-15 14:01N 34°33' E 135°27'0 0.0
2018-Jun-15 13:29N 34°33' E 135°27'0 0.0
2018-Jun-15 13:00N 34°33' E 135°27'0 0.0
2018-Jun-15 12:30N 34°33' E 135°27'0 0.0
2018-Jun-15 11:59N 34°33' E 135°27'0 0.0
2018-Jun-15 11:30N 34°33' E 135°27'0 0.0
2018-Jun-15 10:55N 34°33' E 135°27'0 0.0
2018-Jun-15 10:29N 34°33' E 135°27'0 0.0
2018-Jun-15 09:58N 34°33' E 135°27'0 0.0
2018-Jun-15 09:31N 34°33' E 135°27'0 0.0
2018-Jun-15 09:01N 34°33' E 135°27'0 0.0
2018-Jun-15 08:29N 34°33' E 135°27'0 0.0
2018-Jun-15 08:00N 34°33' E 135°27'0 0.0
2018-Jun-15 07:30N 34°33' E 135°27'0 0.0
2018-Jun-15 06:59N 34°33' E 135°27'0 0.0
2018-Jun-15 06:31N 34°33' E 135°27'0 0.0
2018-Jun-15 06:00N 34°33' E 135°27'0 0.0
2018-Jun-15 05:30N 34°33' E 135°27'0 0.0
2018-Jun-15 04:02N 34°33' E 135°27'0 0.0
2018-Jun-15 03:49N 34°33' E 135°27'0 0.0
2018-Jun-15 03:30N 34°33' E 135°27'0 0.0
2018-Jun-15 03:00N 34°33' E 135°27'0 0.1
2018-Jun-15 02:31N 34°33' E 135°27'0 0.1
2018-Jun-15 02:00N 34°33' E 135°27'0 0.0
2018-Jun-15 01:30N 34°33' E 135°27'0 0.0
2018-Jun-15 00:59N 34°33' E 135°27'0 0.0
2018-Jun-15 00:30N 34°33' E 135°27'0 0.0
2018-Jun-15 00:00N 34°33' E 135°27'0 0.0
2018-Jun-14 23:27N 34°33' E 135°27'0 0.0
2018-Jun-14 23:00N 34°33' E 135°27'0 0.0
2018-Jun-14 22:30N 34°33' E 135°27'0 0.0
2018-Jun-14 21:59N 34°33' E 135°27'0 0.0
2018-Jun-14 21:30N 34°33' E 135°27'0 0.0
2018-Jun-14 21:00N 34°33' E 135°27'0 0.0
2018-Jun-14 20:30N 34°33' E 135°27'0 0.0
2018-Jun-14 20:00N 34°33' E 135°27'0 0.0
2018-Jun-14 19:30N 34°33' E 135°27'0 0.0
2018-Jun-14 19:00N 34°33' E 135°27'0 0.0
2018-Jun-14 18:30N 34°33' E 135°27'0 0.0
2018-Jun-14 18:00N 34°33' E 135°27'0 0.0
2018-Jun-14 17:30N 34°33' E 135°27'0 0.0
2018-Jun-14 16:59N 34°33' E 135°27'0 0.0
2018-Jun-14 16:29N 34°33' E 135°27'0 0.0
2018-Jun-14 16:00N 34°33' E 135°27'0 0.0
2018-Jun-14 15:31N 34°33' E 135°27'0 0.0
2018-Jun-14 14:59N 34°33' E 135°27'0 0.0
2018-Jun-14 14:31N 34°33' E 135°27'0 0.0
2018-Jun-14 14:00N 34°33' E 135°27'0 0.0
2018-Jun-14 13:30N 34°33' E 135°27'0 0.0
2018-Jun-14 13:00N 34°33' E 135°27'0 0.0
2018-Jun-14 12:30N 34°33' E 135°27'0 0.0
2018-Jun-14 12:00N 34°33' E 135°27'0 0.0
2018-Jun-14 11:31N 34°33' E 135°27'0 0.0
2018-Jun-14 11:00N 34°33' E 135°27'0 0.0
2018-Jun-14 10:28N 34°33' E 135°27'0 0.0
2018-Jun-14 10:01N 34°33' E 135°27'0 0.0
2018-Jun-14 09:30N 34°33' E 135°27'0 0.0
2018-Jun-14 09:00N 34°33' E 135°27'0 0.0
2018-Jun-14 08:30N 34°33' E 135°27'0 0.0
2018-Jun-14 08:00N 34°33' E 135°27'0 0.0
2018-Jun-14 07:30N 34°33' E 135°27'0 0.0
2018-Jun-14 07:00N 34°33' E 135°27'0 0.0
2018-Jun-14 06:30N 34°33' E 135°27'0 0.0
2018-Jun-14 05:58N 34°33' E 135°27'0 0.0
2018-Jun-14 05:29N 34°33' E 135°27'0 0.0
2018-Jun-14 05:00N 34°33' E 135°27'0 0.0
2018-Jun-14 04:30N 34°33' E 135°27'0 0.0
2018-Jun-14 04:00N 34°33' E 135°27'0 0.0
2018-Jun-14 03:30N 34°33' E 135°27'0 0.0
2018-Jun-14 03:00N 34°33' E 135°27'0 0.0
2018-Jun-14 02:30N 34°33' E 135°27'0 0.0
2018-Jun-14 02:00N 34°33' E 135°27'0 0.0
2018-Jun-14 01:30N 34°33' E 135°27'0 0.0
2018-Jun-14 01:00N 34°33' E 135°27'0 0.0
2018-Jun-14 00:28N 34°33' E 135°27'0 0.0
2018-Jun-14 00:00N 34°33' E 135°27'0 0.0
2018-Jun-13 23:30N 34°33' E 135°27'0 0.0
2018-Jun-13 22:59N 34°33' E 135°27'0 0.0
2018-Jun-13 22:30N 34°33' E 135°27'0 0.0
2018-Jun-13 22:00N 34°33' E 135°27'0 0.0
2018-Jun-13 21:30N 34°33' E 135°27'0 0.0
2018-Jun-13 21:00N 34°33' E 135°27'0 0.0
2018-Jun-13 20:30N 34°33' E 135°27'0 0.0
2018-Jun-13 20:00N 34°33' E 135°27'0 0.0
2018-Jun-13 19:30N 34°33' E 135°27'0 0.0
2018-Jun-13 19:00N 34°33' E 135°27'0 0.0
2018-Jun-13 18:30N 34°33' E 135°27'0 0.0
2018-Jun-13 18:00N 34°33' E 135°27'0 0.0
2018-Jun-13 17:30N 34°33' E 135°27'0 0.0
2018-Jun-13 17:00N 34°33' E 135°27'0 0.0
2018-Jun-13 16:30N 34°33' E 135°27'0 0.0
2018-Jun-13 16:00N 34°33' E 135°27'0 0.0
2018-Jun-13 15:30N 34°33' E 135°27'0 0.0
2018-Jun-13 15:00N 34°33' E 135°27'0 0.0
2018-Jun-13 14:30N 34°33' E 135°27'0 0.0
2018-Jun-13 14:00N 34°33' E 135°27'0 0.0
2018-Jun-13 13:30N 34°33' E 135°27'0 0.0
2018-Jun-13 13:00N 34°33' E 135°27'0 0.0
2018-Jun-13 12:30N 34°33' E 135°27'0 0.0
2018-Jun-13 12:00N 34°33' E 135°27'0 0.0
2018-Jun-13 11:27N 34°33' E 135°27'0 0.0
2018-Jun-13 11:00N 34°33' E 135°27'0 0.0
2018-Jun-13 10:30N 34°33' E 135°27'0 0.0
2018-Jun-13 09:59N 34°33' E 135°27'0 0.0
2018-Jun-13 09:11N 34°33' E 135°27'0 0.0
2018-Jun-13 06:46N 34°33' E 135°27'0 0.0
2018-Jun-13 06:31N 34°33' E 135°27'0 0.0
2018-Jun-13 05:59N 34°33' E 135°27'0 0.0
2018-Jun-13 05:29N 34°33' E 135°27'0 0.0
2018-Jun-13 05:00N 34°33' E 135°27'1 1.1
2018-Jun-13 04:28N 34°33' E 135°26'510.8
2018-Jun-13 04:01N 34°38' E 135°23'1 1.0
2018-Jun-13 03:28N 34°38' E 135°24'1 1.1
2018-Jun-13 03:00N 34°38' E 135°23'2 4.9
2018-Jun-13 02:30N 34°39' E 135°26'0 0.0
2018-Jun-13 02:00N 34°39' E 135°26'0 0.0
2018-Jun-13 01:30N 34°39' E 135°26'0 0.0
2018-Jun-13 01:00N 34°39' E 135°26'0 0.0
2018-Jun-13 00:30N 34°39' E 135°26'0 0.0
2018-Jun-13 00:00N 34°39' E 135°26'0 0.0
2018-Jun-12 23:30N 34°39' E 135°26'2 3.4
2018-Jun-12 22:59N 34°39' E 135°24'1 1.2
2018-Jun-12 22:29N 34°38' E 135°23'1 1.4
2018-Jun-12 22:00N 34°38' E 135°23'5 9.5
2018-Jun-12 21:30N 34°33' E 135°25'1 2.3
2018-Jun-12 21:00N 34°33' E 135°27'0 0.0
2018-Jun-12 20:30N 34°33' E 135°27'0 0.0
2018-Jun-12 19:59N 34°33' E 135°27'0 0.0
2018-Jun-12 19:28N 34°33' E 135°27'0 0.0
2018-Jun-12 19:00N 34°33' E 135°27'0 0.0
2018-Jun-12 18:30N 34°33' E 135°27'0 0.0
2018-Jun-12 18:00N 34°33' E 135°27'0 0.0
2018-Jun-12 17:14N 34°33' E 135°27'0 0.0
2018-Jun-12 16:56N 34°33' E 135°27'0 0.0
2018-Jun-12 16:30N 34°33' E 135°27'0 0.0
2018-Jun-12 16:00N 34°33' E 135°27'0 0.0
2018-Jun-12 15:27N 34°33' E 135°27'0 0.0
2018-Jun-12 14:55N 34°33' E 135°27'0 0.0
2018-Jun-12 14:28N 34°33' E 135°27'0 0.0
2018-Jun-12 13:58N 34°33' E 135°27'0 0.0
2018-Jun-12 13:29N 34°33' E 135°27'0 0.0
2018-Jun-12 12:59N 34°33' E 135°27'0 0.0
2018-Jun-12 12:30N 34°33' E 135°27'0 0.0
2018-Jun-12 11:58N 34°33' E 135°27'0 0.0
2018-Jun-12 11:30N 34°33' E 135°27'0 0.0
2018-Jun-12 11:00N 34°33' E 135°27'0 0.0
2018-Jun-12 10:28N 34°33' E 135°27'0 0.0
2018-Jun-12 09:50N 34°33' E 135°27'0 0.0
2018-Jun-12 09:21N 34°33' E 135°27'0 0.0
2018-Jun-12 08:46N 34°33' E 135°27'0 0.0
2018-Jun-12 08:06N 34°33' E 135°27'0 0.1
2018-Jun-12 08:00N 34°33' E 135°27'0 0.0
2018-Jun-12 07:29N 34°33' E 135°27'0 0.0
2018-Jun-12 07:00N 34°33' E 135°27'0 0.0
2018-Jun-12 05:03N 34°33' E 135°27'0 0.0
2018-Jun-12 05:00N 34°33' E 135°27'0 0.0
2018-Jun-12 04:03N 34°33' E 135°27'0 0.0
2018-Jun-12 03:58N 34°33' E 135°27'0 0.0
2018-Jun-12 01:39N 34°33' E 135°27'0 0.0
2018-Jun-12 01:21N 34°33' E 135°27'0 0.0
2018-Jun-12 01:00N 34°33' E 135°27'0 0.0
2018-Jun-12 00:11N 34°33' E 135°27'0 0.0
2018-Jun-11 23:42N 34°33' E 135°27'0 0.0
2018-Jun-11 23:27N 34°33' E 135°27'0 0.0
2018-Jun-11 22:59N 34°33' E 135°27'0 0.0
2018-Jun-11 22:30N 34°33' E 135°27'0 0.0
2018-Jun-11 22:00N 34°33' E 135°27'0 0.0
2018-Jun-11 21:29N 34°33' E 135°27'0 0.0
2018-Jun-11 21:00N 34°33' E 135°27'0 0.0
2018-Jun-11 20:28N 34°33' E 135°27'0 0.0
2018-Jun-11 20:00N 34°33' E 135°27'0 0.0
2018-Jun-11 19:30N 34°33' E 135°27'0 0.0
2018-Jun-11 18:59N 34°33' E 135°27'0 0.0
2018-Jun-11 18:26N 34°33' E 135°27'0 0.0
2018-Jun-11 17:59N 34°33' E 135°27'0 0.0
2018-Jun-11 17:30N 34°33' E 135°27'0 0.0
2018-Jun-11 17:00N 34°33' E 135°27'0 0.0
2018-Jun-11 16:04N 34°33' E 135°27'0 0.0
2018-Jun-11 15:50N 34°33' E 135°27'0 0.0
2018-Jun-11 15:10N 34°33' E 135°27'0 0.0
2018-Jun-11 15:00N 34°33' E 135°27'0 0.0
2018-Jun-11 14:29N 34°33' E 135°27'0 0.0
2018-Jun-11 13:59N 34°33' E 135°27'0 0.0
2018-Jun-11 13:25N 34°33' E 135°27'0 0.0
2018-Jun-11 13:00N 34°33' E 135°27'0 0.0
2018-Jun-11 12:23N 34°33' E 135°27'0 0.0
2018-Jun-11 12:00N 34°33' E 135°27'0 0.0
2018-Jun-11 11:24N 34°33' E 135°27'0 0.0
2018-Jun-11 10:35N 34°33' E 135°27'0 0.0
2018-Jun-11 10:23N 34°33' E 135°27'0 0.0
2018-Jun-11 09:59N 34°33' E 135°27'0 0.0
2018-Jun-11 08:57N 34°33' E 135°27'0 0.0
2018-Jun-11 07:02N 34°33' E 135°27'0 0.0
2018-Jun-11 07:00N 34°33' E 135°27'0 0.0
2018-Jun-11 06:29N 34°33' E 135°27'0 0.2
2018-Jun-11 05:52N 34°33' E 135°27'3 8.4
2018-Jun-11 05:28N 34°31' E 135°23'0 0.4
2018-Jun-11 04:56N 34°31' E 135°23'0 0.2
2018-Jun-11 03:05N 34°31' E 135°24'0 0.0
2018-Jun-11 02:58N 34°31' E 135°24'0 0.1
2018-Jun-11 02:30N 34°31' E 135°24'612.5
2018-Jun-11 02:00N 34°37' E 135°23'3 4.9
2018-Jun-11 01:30N 34°39' E 135°24'0 0.1
2018-Jun-11 01:00N 34°39' E 135°24'1 1.5
2018-Jun-11 00:30N 34°40' E 135°24'0 0.0
2018-Jun-11 00:00N 34°40' E 135°24'0 0.0
2018-Jun-10 23:30N 34°40' E 135°24'0 0.0
2018-Jun-10 23:00N 34°40' E 135°24'  

Dump ship's entire track history